Time;durP1;ratioP1;P1;durP2;ratioP2;P2;SDS_P1;SDS_P2;PMS_P1;PMS_P2;Temp;Humidity;BMP_temperature;BMP_pressure;BME280_temperature;BME280_humidity;BME280_pressure;Samples;Min_cycle;Max_cycle;Signal;HPM_P1;HPM_P2
2023/08/27 03:01:29;;;;;;;1.10;1.00;;;24.90;59.90;;;;;;5338336;23;46282;-85
2023/08/27 03:03:55;;;;;;;1.10;0.98;;;24.90;60.00;;;;;;4835258;29;47126;-84
2023/08/27 03:06:20;;;;;;;0.80;0.77;;;24.90;60.00;;;;;;4825263;29;44970;-84
2023/08/27 03:08:46;;;;;;;1.20;1.10;;;24.90;60.00;;;;;;4822647;29;45202;-84
2023/08/27 03:11:11;;;;;;;1.17;1.00;;;24.90;60.00;;;;;;4839703;29;45010;-84
2023/08/27 03:13:37;;;;;;;1.08;0.93;;;24.90;60.00;;;;;;4832264;29;46819;-83
2023/08/27 03:16:03;;;;;;;2.08;1.40;;;24.90;60.00;;;;;;4812322;29;45295;-83
2023/08/27 03:18:29;;;;;;;1.10;1.00;;;24.90;60.00;;;;;;4848410;29;44802;-83
2023/08/27 03:20:55;;;;;;;0.95;0.77;;;24.90;60.00;;;;;;4814872;29;45023;-83
2023/08/27 03:23:20;;;;;;;1.00;0.90;;;24.90;60.00;;;;;;4823801;29;45970;-83
2023/08/27 03:25:49;;;;;;;1.55;1.15;;;24.90;60.00;;;;;;4837092;29;45427;-84
2023/08/27 03:28:14;;;;;;;1.55;1.10;;;24.90;59.90;;;;;;4834662;28;45065;-84
2023/08/27 03:30:40;;;;;;;1.20;1.10;;;24.90;60.00;;;;;;4831942;29;44986;-83
2023/08/27 03:33:05;;;;;;;1.63;1.10;;;24.90;60.00;;;;;;4825000;29;46199;-83
2023/08/27 03:35:31;;;;;;;1.20;1.08;;;24.90;60.00;;;;;;4819894;29;45015;-83
2023/08/27 03:37:57;;;;;;;1.20;1.10;;;24.90;60.00;;;;;;4808777;29;45053;-83
2023/08/27 03:40:22;;;;;;;1.00;0.90;;;24.90;60.00;;;;;;4833957;29;45106;-83
2023/08/27 03:42:48;;;;;;;1.20;1.10;;;24.90;60.00;;;;;;4835750;29;47041;-84
2023/08/27 03:45:13;;;;;;;1.15;1.05;;;24.90;60.00;;;;;;4802700;29;45602;-83
2023/08/27 03:47:39;;;;;;;1.10;1.00;;;24.90;60.00;;;;;;4834195;29;46421;-84
2023/08/27 03:50:05;;;;;;;1.40;1.30;;;24.90;60.00;;;;;;4844662;29;45159;-83
2023/08/27 03:52:31;;;;;;;1.48;1.10;;;24.90;60.00;;;;;;4820278;29;47599;-83
2023/08/27 03:54:56;;;;;;;1.40;1.05;;;24.90;60.00;;;;;;4855959;29;44906;-83
2023/08/27 03:57:22;;;;;;;1.38;1.10;;;24.90;60.00;;;;;;4817464;29;45067;-84
2023/08/27 03:59:47;;;;;;;1.52;1.33;;;24.90;59.90;;;;;;4843867;29;44982;-85
2023/08/27 04:02:14;;;;;;;1.08;0.98;;;24.90;60.00;;;;;;4833397;28;47140;-83
2023/08/27 04:04:40;;;;;;;1.10;1.00;;;24.90;59.90;;;;;;4857252;29;45063;-85
2023/08/27 04:07:05;;;;;;;1.05;1.00;;;24.90;60.00;;;;;;4837724;29;45119;-84
2023/08/27 04:09:31;;;;;;;1.25;1.10;;;24.90;60.00;;;;;;4855462;29;45459;-84
2023/08/27 04:11:56;;;;;;;1.30;1.08;;;24.90;60.00;;;;;;4849138;29;45092;-84
2023/08/27 04:14:22;;;;;;;1.40;1.05;;;24.90;60.00;;;;;;4857464;29;45108;-83
2023/08/27 04:16:47;;;;;;;1.20;1.00;;;24.90;60.00;;;;;;4832781;29;44960;-84
2023/08/27 04:19:13;;;;;;;1.27;1.15;;;24.90;60.00;;;;;;4808152;29;44951;-84
2023/08/27 04:21:39;;;;;;;3.03;1.02;;;24.90;60.00;;;;;;4820376;29;47032;-84
2023/08/27 04:24:05;;;;;;;1.10;1.00;;;24.90;60.00;;;;;;4840125;29;45348;-84
2023/08/27 04:26:30;;;;;;;1.33;1.20;;;24.90;59.90;;;;;;4850087;29;45144;-84
2023/08/27 04:28:56;;;;;;;1.50;1.20;;;24.80;59.90;;;;;;4839261;29;45033;-84
2023/08/27 04:31:21;;;;;;;1.48;1.10;;;24.80;59.90;;;;;;4819513;29;45565;-83
2023/08/27 04:33:47;;;;;;;3.75;1.15;;;24.80;59.90;;;;;;4837876;29;45395;-84
2023/08/27 04:36:12;;;;;;;1.15;1.05;;;24.90;60.00;;;;;;4834196;29;45297;-83
2023/08/27 04:38:38;;;;;;;1.30;1.08;;;24.80;59.90;;;;;;4820935;29;45173;-84
2023/08/27 04:41:04;;;;;;;1.02;0.93;;;24.80;59.90;;;;;;4823368;29;46268;-83
2023/08/27 04:43:29;;;;;;;1.17;1.08;;;24.80;59.90;;;;;;4823325;29;45114;-83
2023/08/27 04:45:55;;;;;;;1.92;1.20;;;24.80;59.90;;;;;;4804788;29;45227;-83
2023/08/27 04:48:20;;;;;;;1.23;1.13;;;24.90;59.90;;;;;;4820791;29;45371;-83
2023/08/27 04:50:46;;;;;;;1.30;1.20;;;24.80;59.90;;;;;;4834886;29;46949;-83
2023/08/27 04:53:11;;;;;;;1.20;1.00;;;24.80;59.90;;;;;;4824865;29;45297;-83
2023/08/27 04:55:38;;;;;;;2.45;1.10;;;24.80;59.90;;;;;;4804439;29;45269;-84
2023/08/27 04:58:04;;;;;;;1.17;0.98;;;24.80;59.90;;;;;;4822940;29;45380;-84
2023/08/27 05:00:30;;;;;;;1.02;0.93;;;24.80;59.90;;;;;;4840805;29;46833;-83
2023/08/27 05:02:55;;;;;;;2.03;1.02;;;24.80;59.90;;;;;;4848239;29;45046;-84
2023/08/27 05:05:21;;;;;;;2.75;1.17;;;24.80;59.90;;;;;;4829180;29;45371;-83
2023/08/27 05:07:46;;;;;;;1.65;1.20;;;24.80;59.90;;;;;;4844416;29;45153;-83
2023/08/27 05:10:12;;;;;;;1.30;1.08;;;24.90;59.90;;;;;;4848076;29;46286;-83
2023/08/27 05:12:38;;;;;;;1.67;1.20;;;24.80;59.90;;;;;;4835819;29;46009;-84
2023/08/27 05:15:05;;;;;;;1.25;1.13;;;24.80;59.90;;;;;;4849108;29;45026;-83
2023/08/27 05:17:31;;;;;;;1.10;1.00;;;24.80;59.90;;;;;;4834637;29;45232;-84
2023/08/27 05:19:57;;;;;;;1.45;1.17;;;24.80;59.90;;;;;;4852891;29;45004;-84
2023/08/27 05:22:22;;;;;;;1.65;1.23;;;24.80;59.90;;;;;;4836384;29;45345;-84
2023/08/27 05:24:48;;;;;;;1.20;1.10;;;24.80;59.90;;;;;;4839170;29;44981;-84
2023/08/27 05:27:13;;;;;;;1.73;1.23;;;24.80;59.90;;;;;;4822857;29;44922;-84
2023/08/27 05:29:39;;;;;;;2.13;1.23;;;24.80;59.90;;;;;;4851664;29;46824;-83
2023/08/27 05:32:05;;;;;;;0.98;0.88;;;24.80;59.90;;;;;;4830271;29;45037;-84
2023/08/27 05:34:31;;;;;;;1.60;1.23;;;24.80;59.90;;;;;;4853692;29;44997;-83
2023/08/27 05:36:57;;;;;;;1.10;1.00;;;24.80;59.90;;;;;;4831517;29;44946;-82
2023/08/27 05:39:22;;;;;;;1.05;1.02;;;24.80;59.90;;;;;;4825995;29;45809;-84
2023/08/27 05:41:48;;;;;;;1.30;1.20;;;24.80;59.90;;;;;;4829505;29;45208;-82
2023/08/27 05:44:14;;;;;;;1.10;1.00;;;24.80;59.90;;;;;;4855137;29;45061;-82
2023/08/27 05:46:39;;;;;;;1.52;1.20;;;24.80;59.90;;;;;;4810653;29;45211;-83
2023/08/27 05:49:05;;;;;;;1.23;1.13;;;24.80;59.90;;;;;;4824974;29;47676;-82
2023/08/27 05:51:30;;;;;;;2.10;1.50;;;24.80;59.90;;;;;;4815970;29;45003;-83
2023/08/27 05:53:56;;;;;;;1.23;1.13;;;24.80;59.90;;;;;;4854692;29;44926;-82
2023/08/27 05:56:22;;;;;;;1.20;1.08;;;24.80;59.90;;;;;;4846238;29;45448;-83
2023/08/27 05:58:48;;;;;;;1.10;1.00;;;24.80;59.90;;;;;;4804393;29;47386;-82
2023/08/27 06:01:13;;;;;;;2.05;1.08;;;24.80;59.90;;;;;;4827676;29;45293;-82
2023/08/27 06:03:39;;;;;;;2.05;1.20;;;24.80;59.90;;;;;;4831212;29;45601;-82
2023/08/27 06:06:04;;;;;;;3.20;1.27;;;24.80;59.90;;;;;;4821180;29;45229;-82
2023/08/27 06:08:30;;;;;;;1.25;1.17;;;24.80;60.60;;;;;;4855989;29;46919;-82
2023/08/27 06:10:56;;;;;;;1.23;1.13;;;24.80;59.90;;;;;;4845598;29;45635;-82
2023/08/27 06:13:22;;;;;;;1.35;1.25;;;24.80;60.60;;;;;;4825598;29;45514;-81
2023/08/27 06:15:47;;;;;;;1.33;1.15;;;24.80;59.90;;;;;;4830854;29;44879;-82
2023/08/27 06:18:13;;;;;;;1.90;1.13;;;24.80;59.90;;;;;;4854896;29;47455;-82
2023/08/27 06:20:39;;;;;;;1.40;1.00;;;24.80;59.90;;;;;;4845261;29;44954;-82
2023/08/27 06:23:04;;;;;;;1.17;1.05;;;24.80;59.90;;;;;;4820194;29;45131;-81
2023/08/27 06:25:34;;;;;;;1.98;1.25;;;24.80;59.90;;;;;;4837953;29;45041;-82
2023/08/27 06:28:01;;;;;;;1.17;1.05;;;24.80;59.90;;;;;;4856831;29;47236;-82
2023/08/27 06:30:27;;;;;;;2.25;1.35;;;24.80;59.90;;;;;;4834573;29;44825;-83
2023/08/27 06:32:52;;;;;;;1.33;1.23;;;24.80;59.90;;;;;;4850391;29;45086;-82
2023/08/27 06:35:18;;;;;;;1.40;1.10;;;24.80;59.90;;;;;;4819923;29;45190;-82
2023/08/27 06:37:44;;;;;;;1.30;1.05;;;24.80;59.90;;;;;;4819847;29;45413;-83
2023/08/27 06:40:11;;;;;;;1.73;1.35;;;24.80;59.90;;;;;;4823795;29;45014;-83
2023/08/27 06:42:37;;;;;;;1.27;1.17;;;24.80;59.90;;;;;;4823211;29;45032;-82
2023/08/27 06:45:04;;;;;;;1.65;1.33;;;24.80;59.90;;;;;;4844654;29;45021;-81
2023/08/27 06:47:30;;;;;;;1.52;1.33;;;24.80;59.90;;;;;;4811783;29;46817;-82
2023/08/27 06:49:56;;;;;;;1.40;1.20;;;24.80;59.90;;;;;;4829394;29;45194;-82
2023/08/27 06:52:21;;;;;;;1.45;1.23;;;24.80;59.90;;;;;;4819637;29;45165;-82
2023/08/27 06:54:47;;;;;;;2.10;1.27;;;24.80;59.90;;;;;;4839036;29;45023;-82
2023/08/27 06:57:13;;;;;;;1.50;1.30;;;24.80;59.90;;;;;;4801710;29;47058;-82
2023/08/27 06:59:38;;;;;;;1.85;1.08;;;24.80;59.90;;;;;;4823472;29;45085;-83
2023/08/27 07:02:04;;;;;;;1.52;1.40;;;24.80;59.90;;;;;;4807433;29;45317;-82
2023/08/27 07:04:31;;;;;;;1.13;1.02;;;24.80;59.90;;;;;;4828586;29;45132;-83
2023/08/27 07:06:56;;;;;;;1.45;1.35;;;24.70;59.90;;;;;;4800012;29;45276;-83
2023/08/27 07:09:22;;;;;;;2.13;1.15;;;24.80;59.90;;;;;;4823182;29;45192;-83
2023/08/27 07:11:48;;;;;;;1.88;1.23;;;24.70;59.90;;;;;;4837943;29;45019;-82
2023/08/27 07:14:13;;;;;;;1.30;1.10;;;24.70;59.90;;;;;;4838940;29;45211;-82
2023/08/27 07:16:39;;;;;;;1.83;1.50;;;24.70;59.90;;;;;;4844894;29;45440;-82
2023/08/27 07:19:04;;;;;;;1.20;1.10;;;24.70;59.90;;;;;;4847660;29;45083;-82
2023/08/27 07:21:30;;;;;;;1.63;1.20;;;24.70;59.90;;;;;;4848854;29;44795;-83
2023/08/27 07:23:56;;;;;;;2.15;1.60;;;24.70;59.90;;;;;;4848617;29;45234;-83
2023/08/27 07:26:22;;;;;;;2.03;1.20;;;24.70;59.90;;;;;;4814718;29;45670;-85
2023/08/27 07:28:48;;;;;;;2.83;1.30;;;24.70;59.90;;;;;;4855114;29;45068;-85
2023/08/27 07:31:13;;;;;;;1.80;1.15;;;24.70;59.30;;;;;;4812867;29;45391;-82
2023/08/27 07:33:39;;;;;;;1.67;1.27;;;24.80;59.90;;;;;;4859915;29;44996;-82
2023/08/27 07:36:05;;;;;;;1.10;1.00;;;24.70;59.90;;;;;;4836861;29;45600;-82
2023/08/27 07:38:30;;;;;;;1.27;1.17;;;24.70;59.90;;;;;;4830789;29;45512;-82
2023/08/27 07:40:56;;;;;;;1.73;1.35;;;24.70;59.90;;;;;;4828584;29;45073;-82
2023/08/27 07:43:22;;;;;;;1.50;0.95;;;24.70;59.90;;;;;;4823268;29;45330;-82
2023/08/27 07:45:47;;;;;;;1.10;1.00;;;24.70;59.90;;;;;;4845981;29;47452;-82
2023/08/27 07:48:13;;;;;;;1.42;1.20;;;24.70;59.90;;;;;;4810353;29;45144;-82
2023/08/27 07:50:39;;;;;;;1.27;1.10;;;24.70;59.90;;;;;;4832801;28;44759;-82
2023/08/27 07:53:04;;;;;;;1.60;1.35;;;24.70;59.90;;;;;;4839434;29;45154;-82
2023/08/27 07:55:31;;;;;;;3.20;1.30;;;24.70;59.90;;;;;;4829845;29;47071;-81
2023/08/27 07:57:58;;;;;;;1.40;1.30;;;24.70;59.90;;;;;;4806685;29;44635;-82
2023/08/27 08:00:23;;;;;;;1.30;1.20;;;24.70;59.90;;;;;;4842666;29;45422;-82
2023/08/27 08:02:49;;;;;;;1.40;1.10;;;24.70;59.90;;;;;;4834750;29;45138;-82
2023/08/27 08:05:15;;;;;;;1.40;1.20;;;24.70;59.90;;;;;;4847949;29;47453;-82
2023/08/27 08:07:41;;;;;;;1.80;1.38;;;24.70;59.90;;;;;;4820748;29;45099;-82
2023/08/27 08:10:07;;;;;;;1.13;1.02;;;24.70;59.90;;;;;;4820780;29;44984;-81
2023/08/27 08:12:32;;;;;;;1.27;1.17;;;24.70;59.90;;;;;;4853042;29;45590;-82
2023/08/27 08:14:58;;;;;;;1.55;1.15;;;24.70;59.90;;;;;;4808647;29;47137;-82
2023/08/27 08:17:23;;;;;;;1.30;1.20;;;24.70;59.90;;;;;;4799709;29;46183;-82
2023/08/27 08:19:50;;;;;;;1.42;1.20;;;24.70;59.90;;;;;;4840328;29;44961;-82
2023/08/27 08:22:19;;;;;;;3.33;1.13;;;24.70;59.90;;;;;;4834931;29;45136;-85
2023/08/27 08:24:55;;;;;;;;;;;;;;;;;;;;;
2023/08/27 08:27:22;;;;;;;1.90;1.17;;;24.70;60.00;;;;;;4836563;29;45368;-83
2023/08/27 08:29:47;;;;;;;1.20;1.10;;;24.70;60.00;;;;;;4837596;29;45574;-84
2023/08/27 08:32:13;;;;;;;1.13;1.02;;;24.70;59.90;;;;;;4812380;29;45804;-83
2023/08/27 08:34:39;;;;;;;1.35;1.13;;;24.70;59.90;;;;;;4822069;29;45847;-83
2023/08/27 08:37:05;;;;;;;1.58;1.05;;;24.70;59.90;;;;;;4836649;29;45059;-83
2023/08/27 08:39:30;;;;;;;2.05;1.10;;;24.70;60.00;;;;;;4815357;29;45155;-83
2023/08/27 08:42:14;;;;;;;1.08;0.98;;;24.70;59.90;;;;;;4833576;29;45083;-83
2023/08/27 08:45:09;;;;;;;0.93;0.93;;;24.70;59.90;;;;;;4804724;29;47251;-83
2023/08/27 08:47:36;;;;;;;1.27;1.10;;;24.70;59.90;;;;;;4845414;29;45171;-83
2023/08/27 08:50:05;;;;;;;1.60;1.00;;;24.70;60.00;;;;;;4849440;29;44954;-84
2023/08/27 08:52:30;;;;;;;1.33;1.23;;;24.70;60.00;;;;;;4835473;29;45275;-84
2023/08/27 08:54:56;;;;;;;1.63;1.40;;;24.70;60.00;;;;;;4824458;29;47550;-83
2023/08/27 08:57:23;;;;;;;1.20;1.10;;;24.70;60.00;;;;;;4815297;29;44992;-82
2023/08/27 08:59:48;;;;;;;1.67;1.00;;;24.70;60.00;;;;;;4834533;29;45002;-83
2023/08/27 09:02:14;;;;;;;1.02;0.90;;;24.70;60.00;;;;;;4824795;29;45358;-83
2023/08/27 09:04:43;;;;;;;0.90;0.90;;;24.70;60.00;;;;;;4837402;29;46041;-85
2023/08/27 09:07:08;;;;;;;0.90;0.90;;;24.70;60.00;;;;;;4832456;29;45649;-83
2023/08/27 09:09:34;;;;;;;0.95;0.95;;;24.70;60.00;;;;;;4805237;29;45310;-83
2023/08/27 09:11:59;;;;;;;1.13;1.02;;;24.70;60.00;;;;;;4832432;29;45110;-84
2023/08/27 09:14:25;;;;;;;1.30;1.20;;;24.70;60.00;;;;;;4837532;29;46485;-83
2023/08/27 09:16:51;;;;;;;1.17;1.05;;;24.70;60.00;;;;;;4830612;29;45372;-83
2023/08/27 09:19:16;;;;;;;0.82;0.82;;;24.70;60.00;;;;;;4804030;29;45124;-84
2023/08/27 09:21:43;;;;;;;1.77;0.88;;;24.70;60.00;;;;;;4816833;29;45346;-83
2023/08/27 09:24:08;;;;;;;0.88;0.80;;;24.70;60.00;;;;;;4820930;29;47442;-83
2023/08/27 09:26:34;;;;;;;0.80;0.80;;;24.70;60.00;;;;;;4848647;29;44926;-83
2023/08/27 09:29:01;;;;;;;1.33;1.10;;;24.70;60.00;;;;;;4851815;29;45280;-83
2023/08/27 09:31:39;;;;;;;1.27;0.90;;;24.70;60.00;;;;;;4800751;29;45254;-83
2023/08/27 09:34:05;;;;;;;1.20;1.00;;;24.70;59.90;;;;;;4838843;29;47088;-83
2023/08/27 09:36:35;;;;;;;1.15;1.00;;;24.70;60.00;;;;;;4833747;29;45074;-84
2023/08/27 09:39:12;;;;;;;0.90;0.88;;;24.70;59.90;;;;;;4855717;29;45080;-83
2023/08/27 09:41:38;;;;;;;1.23;1.00;;;24.70;59.90;;;;;;4847245;29;45292;-83
2023/08/27 09:44:04;;;;;;;1.38;0.88;;;24.60;59.90;;;;;;4800309;29;47213;-84
2023/08/27 09:46:30;;;;;;;1.10;1.00;;;24.70;60.00;;;;;;4824684;29;45151;-84
2023/08/27 09:48:56;;;;;;;1.33;0.85;;;24.60;59.90;;;;;;4834256;29;45573;-84
2023/08/27 09:51:22;;;;;;;1.10;0.88;;;24.70;60.00;;;;;;4831427;29;45743;-83
2023/08/27 09:53:48;;;;;;;1.13;1.02;;;24.70;60.00;;;;;;4820374;29;47234;-83
2023/08/27 09:56:15;;;;;;;1.30;1.00;;;24.60;59.90;;;;;;4849500;28;45201;-83
2023/08/27 09:58:41;;;;;;;1.10;1.00;;;24.60;59.90;;;;;;4826372;29;45347;-84
2023/08/27 10:01:07;;;;;;;0.98;0.85;;;24.60;59.90;;;;;;4800637;29;46674;-83
2023/08/27 10:03:33;;;;;;;1.15;0.95;;;24.70;60.00;;;;;;4836680;29;46811;-84
2023/08/27 10:06:01;;;;;;;1.25;1.13;;;24.70;60.00;;;;;;4822055;29;44737;-84
2023/08/27 10:08:27;;;;;;;0.98;0.88;;;24.60;59.90;;;;;;4842059;29;45024;-84
2023/08/27 10:11:11;;;;;;;0.93;0.80;;;24.60;59.90;;;;;;4832118;29;45045;-84
2023/08/27 10:13:37;;;;;;;0.70;0.70;;;24.60;59.90;;;;;;4829788;29;47247;-84
2023/08/27 10:16:03;;;;;;;1.13;1.02;;;24.60;59.90;;;;;;4818656;29;44995;-84
2023/08/27 10:18:28;;;;;;;0.75;0.75;;;24.60;59.90;;;;;;4853587;29;46787;-84
2023/08/27 10:20:54;;;;;;;1.05;0.98;;;24.60;59.90;;;;;;4819315;29;45677;-84
2023/08/27 10:23:19;;;;;;;1.35;0.98;;;24.70;60.00;;;;;;4837226;29;46720;-83
2023/08/27 10:25:46;;;;;;;0.90;0.90;;;24.60;59.90;;;;;;4804842;29;45161;-83
2023/08/27 10:28:12;;;;;;;1.15;0.75;;;24.60;60.00;;;;;;4852096;29;45004;-84
2023/08/27 10:30:37;;;;;;;0.93;0.93;;;24.70;60.00;;;;;;4802198;28;45591;-84
2023/08/27 10:33:03;;;;;;;0.85;0.85;;;24.60;59.90;;;;;;4806381;29;46928;-84
2023/08/27 10:35:33;;;;;;;0.80;0.73;;;24.60;59.90;;;;;;4833628;29;44939;-84
2023/08/27 10:37:59;;;;;;;1.00;0.90;;;24.60;59.90;;;;;;4819962;29;45357;-84
2023/08/27 10:40:24;;;;;;;1.65;0.90;;;24.60;59.90;;;;;;4820147;29;45109;-84
2023/08/27 10:42:50;;;;;;;0.80;0.80;;;24.60;59.90;;;;;;4805270;29;47082;-83
2023/08/27 10:45:19;;;;;;;1.00;0.80;;;24.60;59.90;;;;;;4851761;29;45781;-83
2023/08/27 10:48:03;;;;;;;1.27;1.00;;;24.60;59.90;;;;;;4806885;29;45272;-86
2023/08/27 10:50:47;;;;;;;0.90;0.90;;;24.60;59.90;;;;;;4845459;29;45112;-83
2023/08/27 10:53:16;;;;;;;0.80;0.80;;;24.60;59.90;;;;;;4837819;29;47106;-84
2023/08/27 10:55:48;;;;;;;2.60;0.73;;;24.60;59.90;;;;;;4816165;29;45255;-84
2023/08/27 10:58:22;;;;;;;1.17;0.95;;;24.60;59.90;;;;;;4822537;29;44802;-83
2023/08/27 11:01:03;;;;;;;0.77;0.77;;;24.60;59.90;;;;;;4828716;29;45642;-82
2023/08/27 11:03:49;;;;;;;0.88;0.73;;;24.60;59.90;;;;;;4836710;29;47408;-83
2023/08/27 11:06:15;;;;;;;1.35;0.95;;;24.60;59.90;;;;;;4865885;29;45202;-84
2023/08/27 11:08:41;;;;;;;0.88;0.77;;;24.60;60.00;;;;;;4831322;29;45048;-83
2023/08/27 11:11:11;;;;;;;0.68;0.68;;;24.60;59.90;;;;;;4820369;29;45364;-84
2023/08/27 11:13:37;;;;;;;1.27;0.90;;;24.60;59.90;;;;;;4838845;29;46947;-83
2023/08/27 11:16:13;;;;;;;0.60;0.60;;;24.60;59.90;;;;;;4818482;29;45358;-83
2023/08/27 11:18:49;;;;;;;0.75;0.75;;;24.60;59.90;;;;;;4832213;29;45964;-83
2023/08/27 11:21:39;;;;;;;0.85;0.80;;;24.60;59.90;;;;;;4837507;29;46189;-83
2023/08/27 11:24:15;;;;;;;0.63;0.63;;;24.60;60.00;;;;;;4854241;29;46566;-83
2023/08/27 11:26:41;;;;;;;1.08;0.85;;;24.60;59.90;;;;;;4866914;29;45034;-84
2023/08/27 11:29:10;;;;;;;0.80;0.80;;;24.60;60.00;;;;;;4807775;29;44899;-85
2023/08/27 11:31:40;;;;;;;1.35;0.90;;;24.60;60.00;;;;;;4860878;29;45048;-84
2023/08/27 11:34:06;;;;;;;0.70;0.70;;;24.60;60.00;;;;;;4853377;29;46032;-83
2023/08/27 11:36:32;;;;;;;0.95;0.70;;;24.60;60.00;;;;;;4832817;29;45246;-84
2023/08/27 11:39:01;;;;;;;0.80;0.77;;;24.60;60.00;;;;;;4837292;29;44986;-84
2023/08/27 11:41:37;;;;;;;1.20;1.00;;;24.60;60.00;;;;;;4819453;29;45721;-84
2023/08/27 11:44:06;;;;;;;0.73;0.73;;;24.60;60.00;;;;;;4836788;29;46503;-83
2023/08/27 11:46:32;;;;;;;0.80;0.80;;;24.60;60.00;;;;;;4818944;29;45721;-84
2023/08/27 11:48:58;;;;;;;0.70;0.70;;;24.60;60.00;;;;;;4820136;28;45543;-84
2023/08/27 11:51:24;;;;;;;0.75;0.75;;;24.60;60.00;;;;;;4818151;29;45074;-84
2023/08/27 11:53:51;;;;;;;0.60;0.60;;;24.60;60.00;;;;;;4822207;29;46517;-84
2023/08/27 11:56:17;;;;;;;2.05;0.77;;;24.60;60.00;;;;;;4833599;29;45361;-84
2023/08/27 11:58:42;;;;;;;1.15;0.80;;;24.60;60.00;;;;;;4854864;29;44883;-84
2023/08/27 12:01:11;;;;;;;0.90;0.75;;;24.60;60.00;;;;;;4797943;29;45096;-84
2023/08/27 12:03:41;;;;;;;1.05;0.82;;;24.60;60.00;;;;;;4835390;29;47052;-84
2023/08/27 12:06:14;;;;;;;0.93;0.80;;;24.60;60.00;;;;;;4816582;29;45561;-84
2023/08/27 12:08:40;;;;;;;0.77;0.70;;;24.60;60.00;;;;;;4854141;29;45320;-84
2023/08/27 12:11:05;;;;;;;0.60;0.60;;;24.60;60.00;;;;;;4827313;29;44825;-83
2023/08/27 12:13:31;;;;;;;0.85;0.70;;;24.60;60.00;;;;;;4820434;29;47122;-84
2023/08/27 12:15:57;;;;;;;0.70;0.70;;;24.60;60.00;;;;;;4799877;29;45748;-84
2023/08/27 12:18:22;;;;;;;0.82;0.70;;;24.60;60.00;;;;;;4820314;29;44994;-84
2023/08/27 12:20:49;;;;;;;0.80;0.80;;;24.60;60.00;;;;;;4802041;29;45151;-83
2023/08/27 12:23:14;;;;;;;0.77;0.75;;;24.60;60.00;;;;;;4844726;29;46448;-83
2023/08/27 12:25:51;;;;;;;0.60;0.60;;;24.60;60.00;;;;;;4833598;29;45114;-83
2023/08/27 12:28:17;;;;;;;0.70;0.70;;;24.60;59.90;;;;;;4851028;29;45208;-83
2023/08/27 12:30:46;;;;;;;2.00;0.82;;;24.60;60.00;;;;;;4844681;29;45325;-83
2023/08/27 12:33:11;;;;;;;0.70;0.70;;;24.60;60.00;;;;;;4851723;29;47006;-84
2023/08/27 12:35:37;;;;;;;1.00;0.65;;;24.60;60.00;;;;;;4815643;29;45128;-83
2023/08/27 12:38:03;;;;;;;1.00;0.70;;;24.60;60.10;;;;;;4807287;29;45106;-84
2023/08/27 12:40:28;;;;;;;0.65;0.65;;;24.60;60.10;;;;;;4862870;28;45614;-83
2023/08/27 12:42:54;;;;;;;0.95;0.85;;;24.60;60.10;;;;;;4821885;29;47284;-83
2023/08/27 12:45:20;;;;;;;2.65;0.90;;;24.60;60.00;;;;;;4812191;29;45004;-84
2023/08/27 12:47:45;;;;;;;0.90;0.80;;;24.60;60.00;;;;;;4826281;29;45332;-85
2023/08/27 12:50:11;;;;;;;1.20;0.80;;;24.60;60.00;;;;;;4814569;29;44964;-84
2023/08/27 12:52:37;;;;;;;1.50;0.77;;;24.50;60.00;;;;;;4838493;29;46083;-84
2023/08/27 12:55:03;;;;;;;1.13;0.80;;;24.60;60.00;;;;;;4834026;29;44861;-83
2023/08/27 12:57:29;;;;;;;1.35;0.90;;;24.60;60.10;;;;;;4801554;29;45138;-84
2023/08/27 12:59:55;;;;;;;1.83;0.80;;;24.60;60.10;;;;;;4819995;29;45952;-84
2023/08/27 13:02:20;;;;;;;1.15;0.80;;;24.60;60.10;;;;;;4807604;29;46683;-83
2023/08/27 13:04:46;;;;;;;2.03;0.65;;;24.50;60.00;;;;;;4850759;29;45126;-83
2023/08/27 13:07:11;;;;;;;1.02;0.88;;;24.60;60.00;;;;;;4845366;29;44881;-83
2023/08/27 13:09:37;;;;;;;0.68;0.68;;;24.50;60.00;;;;;;4835239;29;44910;-83
2023/08/27 13:12:03;;;;;;;0.88;0.60;;;24.50;60.00;;;;;;4846037;29;46636;-83
2023/08/27 13:14:29;;;;;;;3.45;0.90;;;24.60;60.10;;;;;;4837740;29;44954;-83
2023/08/27 13:16:54;;;;;;;1.70;0.60;;;24.50;60.00;;;;;;4830864;29;45135;-82
2023/08/27 13:19:20;;;;;;;0.60;0.60;;;24.50;60.00;;;;;;4833411;29;45072;-83
2023/08/27 13:21:46;;;;;;;0.90;0.75;;;24.60;60.00;;;;;;4831937;29;45567;-83
2023/08/27 13:24:12;;;;;;;0.95;0.65;;;24.50;60.00;;;;;;4835451;29;44828;-83
2023/08/27 13:26:38;;;;;;;1.30;0.80;;;24.50;60.00;;;;;;4833785;29;45218;-83
2023/08/27 13:29:04;;;;;;;1.02;0.82;;;24.60;60.10;;;;;;4839181;29;45088;-84
2023/08/27 13:31:30;;;;;;;1.08;0.77;;;24.60;60.10;;;;;;4844714;29;45657;-83
2023/08/27 13:33:56;;;;;;;1.38;1.10;;;24.50;60.00;;;;;;4834395;29;44983;-83
2023/08/27 13:36:21;;;;;;;1.05;0.90;;;24.50;60.00;;;;;;4860444;28;45173;-82
2023/08/27 13:38:47;;;;;;;0.70;0.70;;;24.50;60.00;;;;;;4819314;29;44856;-83
2023/08/27 13:41:13;;;;;;;2.20;0.80;;;24.50;60.00;;;;;;4800583;29;46857;-82
2023/08/27 13:43:38;;;;;;;0.98;0.70;;;24.50;60.00;;;;;;4822997;29;45214;-83
2023/08/27 13:46:04;;;;;;;1.15;0.80;;;24.50;60.00;;;;;;4829929;29;44696;-83
2023/08/27 13:48:30;;;;;;;1.83;0.88;;;24.50;60.00;;;;;;4854879;28;45774;-83
2023/08/27 13:50:55;;;;;;;0.75;0.65;;;24.50;60.10;;;;;;4838648;29;47377;-83
2023/08/27 13:53:22;;;;;;;0.77;0.63;;;24.50;60.10;;;;;;4824421;29;44932;-83
2023/08/27 13:55:47;;;;;;;0.93;0.90;;;24.50;60.10;;;;;;4817734;29;45238;-82
2023/08/27 13:58:13;;;;;;;1.27;0.80;;;24.50;60.10;;;;;;4822605;29;45219;-83
2023/08/27 14:00:38;;;;;;;0.82;0.82;;;24.50;60.10;;;;;;4815988;29;47646;-82
2023/08/27 14:03:04;;;;;;;0.93;0.90;;;24.60;60.10;;;;;;4803035;29;45099;-82
2023/08/27 14:05:29;;;;;;;1.15;0.80;;;24.50;60.10;;;;;;4801797;29;44782;-83
2023/08/27 14:07:55;;;;;;;0.75;0.55;;;24.50;60.10;;;;;;4819416;28;45086;-83
2023/08/27 14:10:21;;;;;;;1.58;1.00;;;24.50;60.10;;;;;;4817271;29;47656;-83
2023/08/27 14:12:47;;;;;;;0.90;0.82;;;24.50;60.10;;;;;;4802118;29;45005;-83
2023/08/27 14:15:13;;;;;;;0.70;0.70;;;24.50;60.20;;;;;;4799213;29;45389;-83
2023/08/27 14:17:38;;;;;;;1.88;0.85;;;24.50;60.10;;;;;;4798808;29;45446;-83
2023/08/27 14:20:05;;;;;;;1.25;0.90;;;24.50;60.10;;;;;;4803485;29;47034;-83
2023/08/27 14:22:30;;;;;;;1.02;0.80;;;24.50;60.10;;;;;;4833738;28;44892;-83
2023/08/27 14:24:56;;;;;;;1.17;0.80;;;24.50;60.10;;;;;;4804836;29;45155;-83
2023/08/27 14:27:22;;;;;;;1.35;0.95;;;24.50;60.10;;;;;;4797091;29;45418;-83
2023/08/27 14:29:47;;;;;;;1.48;0.68;;;24.50;60.20;;;;;;4805150;29;47424;-83
2023/08/27 14:32:13;;;;;;;1.00;0.90;;;24.50;60.10;;;;;;4825183;29;45294;-83
2023/08/27 14:34:38;;;;;;;1.10;1.00;;;24.50;60.20;;;;;;4818741;29;44741;-82
2023/08/27 14:37:04;;;;;;;1.35;0.82;;;24.50;60.10;;;;;;4828702;29;45007;-83
2023/08/27 14:39:30;;;;;;;1.17;0.70;;;24.50;60.10;;;;;;4819042;29;47436;-83
2023/08/27 14:41:56;;;;;;;1.42;0.80;;;24.50;60.20;;;;;;4833402;29;45369;-83
2023/08/27 14:44:21;;;;;;;2.00;0.95;;;24.50;60.20;;;;;;4804990;28;45601;-83
2023/08/27 14:46:47;;;;;;;0.70;0.60;;;24.50;60.10;;;;;;4798437;29;44877;-83
2023/08/27 14:49:13;;;;;;;1.10;1.00;;;24.50;60.20;;;;;;4848530;29;45659;-83
2023/08/27 14:51:38;;;;;;;0.82;0.82;;;24.50;60.10;;;;;;4815076;29;45220;-83
2023/08/27 14:54:04;;;;;;;1.45;0.60;;;24.50;60.20;;;;;;4833283;29;45078;-82
2023/08/27 14:56:30;;;;;;;0.95;0.63;;;24.50;60.20;;;;;;4816521;29;45364;-83
2023/08/27 14:58:55;;;;;;;1.10;0.80;;;24.50;60.10;;;;;;4805687;29;47235;-83
2023/08/27 15:01:21;;;;;;;1.23;0.77;;;24.50;60.20;;;;;;4823456;29;45065;-82
2023/08/27 15:03:48;;;;;;;1.08;0.80;;;24.50;60.20;;;;;;4842275;28;45091;-83
2023/08/27 15:06:14;;;;;;;0.95;0.85;;;24.50;60.20;;;;;;4795550;29;45258;-83
2023/08/27 15:08:39;;;;;;;0.90;0.68;;;24.50;60.20;;;;;;4833072;29;45733;-82
2023/08/27 15:11:05;;;;;;;1.33;0.90;;;24.50;60.20;;;;;;4829826;29;45716;-83
2023/08/27 15:13:31;;;;;;;0.68;0.60;;;24.40;60.10;;;;;;4852452;29;45470;-81
2023/08/27 15:15:57;;;;;;;0.82;0.63;;;24.40;60.10;;;;;;4843509;29;44994;-83
2023/08/27 15:18:24;;;;;;;0.98;0.73;;;24.40;60.10;;;;;;4817180;29;47240;-83
2023/08/27 15:20:49;;;;;;;1.40;0.80;;;24.50;60.90;;;;;;4830152;29;45258;-83
2023/08/27 15:23:15;;;;;;;0.73;0.70;;;24.40;60.10;;;;;;4835763;29;45351;-83
2023/08/27 15:25:40;;;;;;;0.88;0.70;;;24.40;60.10;;;;;;4828519;29;46172;-83
2023/08/27 15:28:06;;;;;;;0.90;0.90;;;24.50;60.20;;;;;;4818420;29;47560;-83
2023/08/27 15:30:31;;;;;;;1.15;0.80;;;24.50;60.20;;;;;;4811238;29;45329;-83
2023/08/27 15:32:57;;;;;;;1.02;0.70;;;24.40;60.10;;;;;;4817877;29;44936;-84
2023/08/27 15:35:23;;;;;;;0.60;0.60;;;24.40;60.10;;;;;;4809346;29;45427;-83
2023/08/27 15:37:49;;;;;;;1.10;0.80;;;24.40;60.10;;;;;;4831257;29;46983;-83
2023/08/27 15:40:14;;;;;;;0.80;0.70;;;24.40;60.10;;;;;;4844939;29;45301;-83
2023/08/27 15:42:49;;;;;;;0.80;0.80;;;24.40;60.10;;;;;;4834127;29;44998;-83
2023/08/27 15:45:14;;;;;;;1.10;0.75;;;24.40;60.10;;;;;;4814430;29;45262;-83